Time;durP1;ratioP1;P1;durP2;ratioP2;P2;SDS_P1;SDS_P2;PMS_P1;PMS_P2;Temp;Humidity;BMP_temperature;BMP_pressure;BME280_temperature;BME280_humidity;BME280_pressure;Samples;Min_cycle;Max_cycle;Signal;HPM_P1;HPM_P2
2022/01/10 00:01:44;;;;;;;7.85;3.28;;;4.90;99.90;;;;;;5111730;28;20031;-66
2022/01/10 00:04:10;;;;;;;7.72;3.00;;;4.90;99.90;;;;;;5112833;28;20034;-66
2022/01/10 00:06:36;;;;;;;9.80;3.88;;;4.90;99.90;;;;;;5112024;28;20031;-66
2022/01/10 00:09:03;;;;;;;7.38;3.10;;;4.70;99.90;;;;;;5112644;28;20028;-66
2022/01/10 00:11:29;;;;;;;8.80;3.40;;;4.80;99.90;;;;;;5112707;28;20384;-66
2022/01/10 00:13:56;;;;;;;7.32;2.72;;;4.90;99.90;;;;;;5112993;28;20100;-66
2022/01/10 00:16:22;;;;;;;7.22;3.03;;;4.90;99.90;;;;;;5112967;28;20024;-67
2022/01/10 00:18:48;;;;;;;10.75;3.65;;;4.90;99.90;;;;;;5110967;28;20389;-67
2022/01/10 00:21:13;;;;;;;10.90;3.33;;;4.80;99.90;;;;;;5112280;28;20063;-65
2022/01/10 00:23:39;;;;;;;10.45;3.83;;;4.80;99.90;;;;;;5110497;28;20031;-67
2022/01/10 00:26:05;;;;;;;8.88;3.35;;;4.70;99.90;;;;;;5094376;28;20068;-67
2022/01/10 00:28:30;;;;;;;5.80;3.03;;;4.70;99.90;;;;;;5112033;28;20035;-67
2022/01/10 00:30:56;;;;;;;8.48;3.67;;;4.80;99.90;;;;;;5111964;28;20119;-67
2022/01/10 00:33:21;;;;;;;6.78;3.55;;;4.80;99.90;;;;;;5116175;28;20085;-67
2022/01/10 00:35:47;;;;;;;11.13;3.03;;;4.90;99.90;;;;;;5116298;28;20030;-67
2022/01/10 00:38:13;;;;;;;7.32;3.00;;;4.90;99.90;;;;;;5116728;28;20374;-69
2022/01/10 00:40:40;;;;;;;8.82;3.58;;;4.90;99.90;;;;;;5115834;28;20023;-67
2022/01/10 00:43:08;;;;;;;10.60;3.40;;;4.80;99.90;;;;;;5116753;28;20032;-69
2022/01/10 00:45:33;;;;;;;6.38;2.70;;;4.80;99.90;;;;;;5114556;28;20088;-67
2022/01/10 00:48:00;;;;;;;15.63;4.88;;;4.80;99.90;;;;;;5115650;28;20461;-66
2022/01/10 00:50:27;;;;;;;16.98;4.97;;;4.80;99.90;;;;;;5115554;28;20461;-66
2022/01/10 00:52:54;;;;;;;8.90;3.65;;;4.70;99.90;;;;;;5113760;28;20424;-65
2022/01/10 00:55:21;;;;;;;8.07;3.53;;;4.70;99.90;;;;;;5115226;28;20027;-69
2022/01/10 00:57:47;;;;;;;8.82;3.40;;;4.60;99.90;;;;;;5113478;28;20081;-67
2022/01/10 01:00:15;;;;;;;13.77;4.00;;;4.60;99.90;;;;;;5116528;28;20032;-68
2022/01/10 01:02:41;;;;;;;10.55;4.07;;;4.70;99.90;;;;;;5115857;28;20027;-68
2022/01/10 01:05:10;;;;;;;12.07;4.00;;;4.70;99.90;;;;;;5114971;28;20119;-65
2022/01/10 01:07:37;;;;;;;9.85;3.78;;;4.60;99.90;;;;;;5114115;28;20076;-68
2022/01/10 01:15:45;;;;;;;7.72;4.00;;;4.80;99.90;;;;;;5115288;28;20078;-66
2022/01/10 01:25:56;;;;;;;9.70;3.47;;;4.90;99.90;;;;;;5114763;28;20088;-65
2022/01/10 01:28:22;;;;;;;10.98;4.40;;;5.00;99.90;;;;;;5115252;28;20036;-65
2022/01/10 01:30:47;;;;;;;10.88;4.10;;;4.90;99.90;;;;;;5113167;28;20027;-66
2022/01/10 01:33:15;;;;;;;9.05;3.90;;;4.70;99.90;;;;;;5114045;28;20031;-66
2022/01/10 01:35:41;;;;;;;8.95;3.67;;;4.50;99.90;;;;;;5114478;28;20023;-67
2022/01/10 01:38:07;;;;;;;13.43;4.43;;;4.50;99.90;;;;;;5115365;28;20038;-65
2022/01/10 01:40:35;;;;;;;14.45;3.85;;;4.50;99.90;;;;;;5113667;28;20070;-67
2022/01/10 01:43:01;;;;;;;9.57;3.78;;;4.50;99.90;;;;;;5114564;28;20132;-66
2022/01/10 01:45:39;;;;;;;11.07;4.65;;;4.50;99.90;;;;;;5114324;28;20051;-67
2022/01/10 01:48:05;;;;;;;7.18;3.63;;;4.50;99.90;;;;;;5114447;28;20031;-67
2022/01/10 01:50:32;;;;;;;9.55;4.28;;;4.60;99.90;;;;;;5113395;28;20481;-67
2022/01/10 01:52:57;;;;;;;14.07;4.90;;;4.60;99.90;;;;;;5114108;28;20024;-67
2022/01/10 01:55:23;;;;;;;12.05;4.47;;;4.70;99.90;;;;;;5114864;28;20032;-67
2022/01/10 01:57:49;;;;;;;9.57;3.58;;;4.60;99.90;;;;;;5115625;28;20057;-68
2022/01/10 02:00:19;;;;;;;14.07;4.50;;;4.70;99.90;;;;;;5114834;28;20106;-66
2022/01/10 02:02:51;;;;;;;9.15;3.47;;;4.60;99.90;;;;;;5115172;28;20036;-69
2022/01/10 02:05:18;;;;;;;10.93;4.05;;;4.50;99.90;;;;;;5114525;28;20388;-72
2022/01/10 02:07:44;;;;;;;9.75;4.15;;;4.50;99.90;;;;;;5114195;28;20114;-66
2022/01/10 02:10:10;;;;;;;10.95;4.93;;;4.40;99.90;;;;;;5114751;28;20032;-67
2022/01/10 02:12:35;;;;;;;14.88;4.78;;;4.40;99.90;;;;;;5115520;28;20028;-69
2022/01/10 02:15:02;;;;;;;8.95;4.50;;;4.40;99.90;;;;;;5114737;28;20027;-67
2022/01/10 02:17:35;;;;;;;13.52;4.68;;;4.50;99.90;;;;;;5116253;28;20083;-68
2022/01/10 02:20:02;;;;;;;12.13;5.43;;;4.50;99.90;;;;;;5115684;28;20362;-68
2022/01/10 02:22:28;;;;;;;12.88;4.90;;;4.50;99.90;;;;;;5116150;28;20044;-67
2022/01/10 02:24:54;;;;;;;14.77;4.85;;;4.50;99.90;;;;;;5114615;28;20130;-68
2022/01/10 02:27:24;;;;;;;10.85;4.50;;;4.50;99.90;;;;;;5115877;28;20027;-68
2022/01/10 02:29:51;;;;;;;8.63;4.68;;;4.50;99.90;;;;;;5115715;28;20055;-66
2022/01/10 02:32:19;;;;;;;15.05;5.30;;;4.40;99.90;;;;;;5114884;28;20035;-67
2022/01/10 02:34:44;;;;;;;11.32;4.32;;;4.40;99.90;;;;;;5113778;28;20035;-68
2022/01/10 02:37:10;;;;;;;12.75;4.97;;;4.40;99.90;;;;;;5113944;28;20455;-66
2022/01/10 02:39:37;;;;;;;13.18;5.40;;;4.40;99.90;;;;;;5113682;28;20036;-66
2022/01/10 02:42:03;;;;;;;8.45;4.07;;;4.40;99.90;;;;;;5112006;28;20034;-67
2022/01/10 02:44:29;;;;;;;9.70;4.43;;;4.40;99.90;;;;;;5112428;28;20027;-66
2022/01/10 02:46:55;;;;;;;10.07;4.05;;;4.40;99.90;;;;;;5113061;28;20036;-66
2022/01/10 02:49:27;;;;;;;8.85;4.03;;;4.40;99.90;;;;;;5113737;28;20458;-66
2022/01/10 02:51:54;;;;;;;;;;;4.40;99.90;;;;;;5112447;28;20023;-67
2022/01/10 02:54:22;;;;;;;10.18;4.55;;;4.50;99.90;;;;;;5113000;28;19903;-66
2022/01/10 02:56:53;;;;;;;8.18;4.22;;;4.40;99.90;;;;;;5113205;28;20034;-66
2022/01/10 02:59:20;;;;;;;16.13;5.80;;;4.40;99.90;;;;;;5112317;28;20059;-66
2022/01/10 03:01:46;;;;;;;9.80;4.75;;;4.50;99.90;;;;;;5112990;28;20151;-66
2022/01/10 03:04:15;;;;;;;9.18;4.32;;;4.40;99.90;;;;;;5113856;28;20024;-66
2022/01/10 03:06:42;;;;;;;11.10;4.45;;;4.50;99.90;;;;;;5113075;28;20065;-70
2022/01/10 03:09:09;;;;;;;9.40;4.47;;;4.50;99.90;;;;;;5113052;28;20468;-67
2022/01/10 03:11:40;;;;;;;11.93;4.55;;;4.50;99.90;;;;;;5113488;28;20020;-67
2022/01/10 03:14:06;;;;;;;10.35;4.75;;;4.60;99.90;;;;;;5113288;28;20028;-67
2022/01/10 03:16:32;;;;;;;11.07;5.25;;;4.60;99.90;;;;;;5113331;28;20496;-68
2022/01/10 03:18:58;;;;;;;10.68;5.35;;;4.50;99.90;;;;;;5111813;28;20027;-68
2022/01/10 03:21:23;;;;;;;11.35;4.30;;;4.50;99.90;;;;;;5112617;28;20027;-67
2022/01/10 03:23:51;;;;;;;10.85;5.40;;;4.50;99.90;;;;;;5111144;28;20034;-66
2022/01/10 03:26:17;;;;;;;11.88;4.30;;;4.60;99.90;;;;;;5094696;28;20023;-66
2022/01/10 03:28:43;;;;;;;9.77;4.20;;;4.60;99.90;;;;;;5111050;28;20035;-67
2022/01/10 03:31:09;;;;;;;12.43;4.30;;;4.60;99.90;;;;;;5111642;28;20084;-68
2022/01/10 03:33:35;;;;;;;14.15;5.22;;;4.70;99.90;;;;;;5112820;28;20488;-66
2022/01/10 03:36:00;;;;;;;9.60;4.25;;;4.60;99.90;;;;;;5111151;28;20030;-67
2022/01/10 03:38:26;;;;;;;10.38;4.40;;;4.70;99.90;;;;;;5112349;28;20032;-69
2022/01/10 03:40:52;;;;;;;13.23;5.40;;;4.70;99.90;;;;;;5112047;28;20488;-67
2022/01/10 03:43:17;;;;;;;9.85;4.60;;;4.60;99.90;;;;;;5113270;28;20107;-67
2022/01/10 03:45:43;;;;;;;10.45;5.20;;;4.60;99.90;;;;;;5112142;28;20015;-68
2022/01/10 03:48:09;;;;;;;11.68;5.15;;;4.60;99.90;;;;;;5112570;28;20091;-67
2022/01/10 03:50:35;;;;;;;13.73;4.80;;;4.60;99.90;;;;;;5112460;28;20366;-67
2022/01/10 03:53:01;;;;;;;10.68;5.38;;;4.70;99.90;;;;;;5112021;28;20035;-67
2022/01/10 03:55:27;;;;;;;13.80;4.85;;;4.70;99.90;;;;;;5112767;28;20436;-69
2022/01/10 03:57:53;;;;;;;9.98;4.40;;;4.70;99.90;;;;;;5112428;28;20095;-66
2022/01/10 04:00:18;;;;;;;11.40;5.22;;;4.80;99.90;;;;;;5113484;28;20024;-72
2022/01/10 04:02:51;;;;;;;14.05;5.07;;;4.80;99.90;;;;;;5112950;28;20108;-70
2022/01/10 04:05:17;;;;;;;13.57;5.75;;;4.70;99.90;;;;;;5113650;28;20027;-67
2022/01/10 04:07:42;;;;;;;11.23;5.13;;;4.70;99.90;;;;;;5116602;28;20027;-67
2022/01/10 04:10:08;;;;;;;12.32;5.95;;;4.70;99.90;;;;;;5114842;28;20456;-67
2022/01/10 04:12:34;;;;;;;12.25;5.20;;;4.70;99.90;;;;;;5116784;28;20067;-67
2022/01/10 04:15:00;;;;;;;10.80;5.25;;;4.60;99.90;;;;;;5097901;28;20054;-67
2022/01/10 04:17:25;;;;;;;13.00;4.95;;;4.50;99.90;;;;;;5116166;28;20545;-68
2022/01/10 04:19:51;;;;;;;11.18;5.40;;;4.50;99.90;;;;;;5118435;28;20529;-68
2022/01/10 04:22:17;;;;;;;14.13;4.95;;;4.50;99.90;;;;;;5116148;27;20040;-72
2022/01/10 04:24:42;;;;;;;12.50;4.82;;;4.50;99.90;;;;;;5142099;27;20027;-67
2022/01/10 04:27:09;;;;;;;14.35;5.15;;;4.50;99.90;;;;;;5136684;27;20027;-68
2022/01/10 04:29:35;;;;;;;13.85;5.30;;;4.50;99.90;;;;;;5136950;27;20039;-70
2022/01/10 04:32:01;;;;;;;15.05;6.43;;;4.50;99.90;;;;;;5135777;27;20034;-68
2022/01/10 04:34:27;;;;;;;17.25;5.93;;;4.50;99.90;;;;;;5137069;27;20027;-68
2022/01/10 04:36:53;;;;;;;8.65;4.50;;;4.40;99.90;;;;;;5134821;27;20055;-67
2022/01/10 04:39:18;;;;;;;15.18;6.25;;;4.40;99.90;;;;;;5135428;27;20080;-68
2022/01/10 04:41:44;;;;;;;11.20;5.15;;;4.50;99.90;;;;;;5135389;27;20433;-67
2022/01/10 04:44:10;;;;;;;12.07;5.35;;;4.40;99.90;;;;;;5136242;27;20057;-65
2022/01/10 04:46:36;;;;;;;14.13;5.85;;;4.40;99.90;;;;;;5136736;27;20035;-67
2022/01/10 04:49:02;;;;;;;10.48;5.88;;;4.30;99.90;;;;;;5134522;27;20150;-66
2022/01/10 04:51:29;;;;;;;10.82;5.13;;;4.40;99.90;;;;;;5136511;27;20167;-66
2022/01/10 04:53:56;;;;;;;13.88;5.70;;;4.30;99.90;;;;;;5135841;27;20015;-67
2022/01/10 04:56:22;;;;;;;14.77;5.78;;;4.30;99.90;;;;;;5134939;27;20133;-68
2022/01/10 04:58:50;;;;;;;8.45;4.35;;;4.40;99.90;;;;;;5135463;27;20031;-70
2022/01/10 05:01:16;;;;;;;8.88;4.22;;;4.40;99.90;;;;;;5134760;27;20023;-65
2022/01/10 05:03:41;;;;;;;14.55;5.10;;;4.40;99.90;;;;;;5136143;27;20084;-66
2022/01/10 05:06:07;;;;;;;9.40;4.75;;;4.30;99.90;;;;;;5135973;27;20622;-67
2022/01/10 05:08:33;;;;;;;14.15;5.45;;;4.30;99.90;;;;;;5136390;27;20023;-65
2022/01/10 05:10:59;;;;;;;12.05;5.53;;;4.20;99.90;;;;;;5136130;27;20046;-68
2022/01/10 05:13:25;;;;;;;13.48;5.90;;;4.20;99.90;;;;;;5136527;27;20054;-65
2022/01/10 05:15:52;;;;;;;11.70;6.03;;;4.20;99.90;;;;;;5135470;27;20102;-66
2022/01/10 05:18:22;;;;;;;11.05;5.47;;;4.30;99.90;;;;;;5133730;27;20027;-66
2022/01/10 05:20:49;;;;;;;12.23;5.70;;;4.30;99.90;;;;;;5135801;27;20025;-65
2022/01/10 05:23:15;;;;;;;11.13;5.78;;;4.20;99.90;;;;;;5136080;27;20043;-65
2022/01/10 05:25:41;;;;;;;10.68;5.57;;;4.20;99.90;;;;;;5134391;27;20031;-69
2022/01/10 05:28:12;;;;;;;14.82;5.68;;;4.10;99.90;;;;;;5134658;27;20031;-67
2022/01/10 05:30:39;;;;;;;10.85;5.43;;;4.20;99.90;;;;;;5137284;27;20026;-67
2022/01/10 05:33:07;;;;;;;13.82;6.10;;;4.20;99.90;;;;;;5135293;27;20126;-66
2022/01/10 05:35:34;;;;;;;13.25;6.20;;;4.20;99.90;;;;;;5134827;27;20426;-66
2022/01/10 05:37:59;;;;;;;12.95;6.28;;;4.10;99.90;;;;;;5135045;27;20035;-67
2022/01/10 05:40:25;;;;;;;18.45;6.25;;;4.20;99.90;;;;;;5134754;27;20075;-66
2022/01/10 05:42:51;;;;;;;11.57;5.88;;;4.30;99.90;;;;;;5134847;27;20026;-68
2022/01/10 05:45:17;;;;;;;12.73;5.22;;;4.40;99.90;;;;;;5135350;27;20067;-66
2022/01/10 05:47:45;;;;;;;12.75;6.68;;;4.50;99.90;;;;;;5134963;27;20114;-65
2022/01/10 05:50:14;;;;;;;16.92;5.60;;;4.50;99.90;;;;;;5134872;27;20064;-67
2022/01/10 05:52:39;;;;;;;12.27;5.25;;;4.50;99.90;;;;;;5134029;27;20373;-68
2022/01/10 05:55:09;;;;;;;11.15;5.78;;;4.50;99.90;;;;;;5135594;27;20038;-69
2022/01/10 05:57:34;;;;;;;10.38;6.18;;;4.60;99.90;;;;;;5134477;27;20031;-67
2022/01/10 06:00:00;;;;;;;12.63;6.13;;;4.60;99.90;;;;;;5134834;27;20038;-67
2022/01/10 06:02:26;;;;;;;10.90;5.30;;;4.60;99.90;;;;;;5134742;27;20027;-67
2022/01/10 06:04:51;;;;;;;11.57;6.85;;;4.60;99.90;;;;;;5133110;27;20027;-73
2022/01/10 06:07:17;;;;;;;14.68;7.10;;;4.60;99.90;;;;;;5135022;27;20031;-65
2022/01/10 06:09:43;;;;;;;15.52;6.07;;;4.60;99.90;;;;;;5133260;27;20027;-66
2022/01/10 06:12:11;;;;;;;10.00;5.55;;;4.40;99.90;;;;;;5135239;27;20031;-66
2022/01/10 06:14:37;;;;;;;12.50;6.28;;;4.40;99.90;;;;;;5137620;27;20031;-68
2022/01/10 06:17:03;;;;;;;14.50;6.03;;;4.20;99.90;;;;;;5134774;27;20029;-66
2022/01/10 06:19:28;;;;;;;10.20;5.90;;;4.20;99.90;;;;;;5134835;27;20506;-67
2022/01/10 06:21:54;;;;;;;12.80;5.88;;;4.20;99.90;;;;;;5135965;27;20043;-68
2022/01/10 06:24:20;;;;;;;12.75;5.78;;;4.20;99.90;;;;;;5136844;27;20049;-68
2022/01/10 06:26:45;;;;;;;12.68;5.95;;;4.30;99.90;;;;;;5135727;27;20027;-66
2022/01/10 06:29:11;;;;;;;13.25;6.40;;;4.40;99.90;;;;;;5135014;27;20023;-67
2022/01/10 06:31:37;;;;;;;14.43;7.07;;;4.40;99.90;;;;;;5134722;27;20109;-67
2022/01/10 06:34:02;;;;;;;16.58;6.32;;;4.40;99.90;;;;;;5135578;27;20088;-67
2022/01/10 06:36:28;;;;;;;18.13;6.40;;;4.20;99.90;;;;;;5134914;27;20032;-66
2022/01/10 06:38:54;;;;;;;18.95;7.10;;;4.20;99.90;;;;;;5134332;27;20448;-67
2022/01/10 06:41:19;;;;;;;15.38;6.00;;;4.20;99.90;;;;;;5134579;27;20027;-70
2022/01/10 06:43:45;;;;;;;14.68;7.60;;;4.20;99.90;;;;;;5133036;27;20023;-67
2022/01/10 06:46:10;;;;;;;19.63;6.82;;;4.20;99.90;;;;;;5133357;27;20445;-66
2022/01/10 06:48:36;;;;;;;10.68;7.22;;;4.10;99.90;;;;;;5132483;27;20038;-68
2022/01/10 06:51:02;;;;;;;14.32;6.50;;;4.10;99.90;;;;;;5133514;27;20028;-67
2022/01/10 06:53:28;;;;;;;12.25;7.47;;;4.10;99.90;;;;;;5133916;27;20030;-67
2022/01/10 06:55:54;;;;;;;16.50;7.38;;;4.10;99.90;;;;;;5133922;27;20015;-67
2022/01/10 06:58:19;;;;;;;17.33;7.38;;;4.10;99.90;;;;;;5133519;27;20019;-66
2022/01/10 07:00:45;;;;;;;12.90;6.80;;;4.10;99.90;;;;;;5132911;27;20392;-70
2022/01/10 07:03:11;;;;;;;19.00;7.70;;;4.20;99.90;;;;;;5133324;27;20042;-72
2022/01/10 07:05:37;;;;;;;14.15;7.68;;;4.20;99.90;;;;;;5133895;27;20483;-67
2022/01/10 07:08:03;;;;;;;17.38;7.18;;;4.20;99.90;;;;;;5133307;27;20509;-69
2022/01/10 07:10:29;;;;;;;20.35;6.88;;;4.30;99.90;;;;;;5132754;27;20039;-67
2022/01/10 07:12:55;;;;;;;16.17;7.88;;;4.40;99.90;;;;;;5132693;27;20023;-69
2022/01/10 07:15:21;;;;;;;13.00;6.78;;;4.40;99.90;;;;;;5133272;27;20380;-69
2022/01/10 07:17:47;;;;;;;13.93;7.30;;;4.30;99.90;;;;;;5133749;27;20476;-70
2022/01/10 07:20:13;;;;;;;21.08;7.93;;;4.20;99.90;;;;;;5133568;27;20019;-66
2022/01/10 07:22:39;;;;;;;17.38;7.38;;;4.30;99.90;;;;;;5134955;27;20043;-67
2022/01/10 07:25:05;;;;;;;13.77;7.03;;;4.30;99.90;;;;;;5132935;27;20102;-68
2022/01/10 07:27:30;;;;;;;14.82;7.68;;;4.30;99.90;;;;;;5133629;27;20027;-69
2022/01/10 07:29:56;;;;;;;23.52;7.93;;;4.40;99.90;;;;;;5133191;27;20035;-71
2022/01/10 07:32:24;;;;;;;14.63;7.32;;;4.30;99.90;;;;;;5132276;27;20415;-69
2022/01/10 07:34:49;;;;;;;15.55;7.22;;;4.20;99.90;;;;;;5132440;27;20032;-67
2022/01/10 07:37:18;;;;;;;18.75;8.35;;;4.20;99.90;;;;;;5133391;28;20027;-68
2022/01/10 07:39:43;;;;;;;15.38;8.13;;;4.30;99.90;;;;;;5133205;28;20441;-67
2022/01/10 07:42:09;;;;;;;15.48;7.72;;;4.10;99.90;;;;;;5132435;27;20059;-68
2022/01/10 07:44:35;;;;;;;18.95;7.93;;;4.30;99.90;;;;;;5132287;28;20051;-68
2022/01/10 07:47:00;;;;;;;13.95;8.13;;;4.40;99.90;;;;;;5134012;27;20118;-67
2022/01/10 07:49:26;;;;;;;19.77;7.53;;;4.50;99.90;;;;;;5134091;27;20038;-70
2022/01/10 07:51:53;;;;;;;18.25;9.38;;;4.60;99.90;;;;;;5133647;27;20030;-67
2022/01/10 07:54:19;;;;;;;12.75;8.27;;;4.60;99.90;;;;;;5133066;27;20026;-67
2022/01/10 07:56:44;;;;;;;18.92;8.60;;;4.40;99.90;;;;;;5131947;28;20023;-67
2022/01/10 07:59:10;;;;;;;15.63;8.60;;;4.30;99.90;;;;;;5132572;28;20038;-66
2022/01/10 08:01:35;;;;;;;16.27;8.35;;;3.90;99.90;;;;;;5133513;28;20023;-66
2022/01/10 08:04:01;;;;;;;17.83;8.55;;;4.10;99.90;;;;;;5131840;28;20033;-69
2022/01/10 08:06:27;;;;;;;16.27;8.05;;;4.20;99.90;;;;;;5133415;27;20098;-67
2022/01/10 08:08:52;;;;;;;13.82;8.43;;;4.30;99.90;;;;;;5132776;28;20484;-67
2022/01/10 08:11:18;;;;;;;16.40;7.88;;;4.30;99.90;;;;;;5132985;28;20581;-67
2022/01/10 08:13:44;;;;;;;15.40;8.10;;;4.40;99.90;;;;;;5133753;28;20019;-66
2022/01/10 08:16:10;;;;;;;20.50;9.07;;;4.60;99.90;;;;;;5131937;28;20023;-68
2022/01/10 08:18:36;;;;;;;18.90;8.35;;;4.70;99.90;;;;;;5133731;27;20081;-69
2022/01/10 08:21:03;;;;;;;14.77;7.80;;;4.80;99.90;;;;;;5133520;28;20027;-69
2022/01/10 08:23:29;;;;;;;15.57;7.78;;;4.80;99.90;;;;;;5132210;28;20050;-69
2022/01/10 08:25:55;;;;;;;12.13;7.35;;;4.60;99.90;;;;;;5133072;27;20027;-67
2022/01/10 08:28:22;;;;;;;17.77;9.00;;;4.60;99.90;;;;;;5132495;28;20095;-68
2022/01/10 08:30:48;;;;;;;15.35;7.85;;;4.50;99.90;;;;;;5131444;28;20035;-69
2022/01/10 08:33:14;;;;;;;20.58;9.25;;;4.50;99.90;;;;;;5132518;27;20075;-67
2022/01/10 08:35:40;;;;;;;17.58;8.40;;;4.30;99.90;;;;;;5133206;28;20098;-66
2022/01/10 08:38:05;;;;;;;17.13;8.55;;;4.30;99.90;;;;;;5116622;28;20393;-69
2022/01/10 08:40:31;;;;;;;12.18;7.35;;;4.30;99.90;;;;;;5115156;28;20039;-66
2022/01/10 08:42:57;;;;;;;16.05;8.27;;;4.30;99.90;;;;;;5124113;28;20075;-68
2022/01/10 08:45:22;;;;;;;16.92;9.70;;;4.30;99.90;;;;;;5114447;28;20035;-68
2022/01/10 08:47:48;;;;;;;16.08;8.85;;;4.30;99.90;;;;;;5120319;28;20035;-68
2022/01/10 08:50:14;;;;;;;19.30;9.95;;;4.30;99.90;;;;;;5124342;27;20046;-68
2022/01/10 08:52:41;;;;;;;15.38;8.88;;;4.20;99.90;;;;;;5115716;28;20026;-68
2022/01/10 08:55:08;;;;;;;16.92;8.82;;;4.10;99.90;;;;;;5114398;28;20035;-67
2022/01/10 08:57:35;;;;;;;19.65;9.02;;;4.30;99.90;;;;;;5120696;27;20035;-67
2022/01/10 09:00:04;;;;;;;16.40;8.85;;;4.60;99.90;;;;;;5120119;27;20315;-66
2022/01/10 09:02:29;;;;;;;18.48;10.40;;;4.40;99.90;;;;;;5115353;28;20028;-69
2022/01/10 09:04:56;;;;;;;18.00;9.82;;;4.80;99.90;;;;;;5118754;27;20031;-68
2022/01/10 09:07:21;;;;;;;19.33;9.60;;;4.70;99.90;;;;;;5134445;27;20031;-67
2022/01/10 09:09:47;;;;;;;19.65;10.63;;;4.60;99.90;;;;;;5130855;27;20034;-67
2022/01/10 09:12:13;;;;;;;14.40;9.35;;;4.60;99.90;;;;;;5120785;27;20027;-67
2022/01/10 09:14:38;;;;;;;17.95;8.45;;;4.80;99.90;;;;;;5116873;27;20410;-68
2022/01/10 09:17:04;;;;;;;26.45;9.65;;;4.80;99.90;;;;;;5135301;27;20034;-70
2022/01/10 09:19:30;;;;;;;18.40;9.85;;;5.00;99.90;;;;;;5132519;27;20024;-68
2022/01/10 09:21:56;;;;;;;23.85;9.65;;;5.10;99.90;;;;;;5134521;27;20047;-67
2022/01/10 09:24:22;;;;;;;12.00;7.85;;;5.40;99.90;;;;;;5134455;27;20034;-67
2022/01/10 09:26:48;;;;;;;16.63;8.85;;;5.40;99.90;;;;;;5135754;27;20062;-67
2022/01/10 09:29:14;;;;;;;18.80;9.10;;;5.50;99.90;;;;;;5133852;27;20050;-67
2022/01/10 09:31:39;;;;;;;16.90;8.88;;;5.60;99.90;;;;;;5131009;27;20055;-66
2022/01/10 09:34:05;;;;;;;20.90;9.10;;;5.80;99.90;;;;;;5129255;27;20503;-67
2022/01/10 09:36:32;;;;;;;15.98;8.93;;;5.90;99.90;;;;;;5113840;28;20031;-69
2022/01/10 09:38:58;;;;;;;13.63;8.10;;;6.00;99.90;;;;;;5115551;28;20027;-67
2022/01/10 09:41:25;;;;;;;16.45;9.25;;;6.00;99.90;;;;;;5118268;27;20239;-68
2022/01/10 09:43:56;;;;;;;17.30;9.15;;;6.00;99.90;;;;;;5113253;27;20031;-67
2022/01/10 09:46:23;;;;;;;14.95;8.45;;;6.10;99.90;;;;;;5114070;28;20040;-67
2022/01/10 09:48:49;;;;;;;14.88;8.25;;;6.30;99.90;;;;;;5113517;28;20027;-67
2022/01/10 09:51:14;;;;;;;18.45;10.23;;;6.30;99.90;;;;;;5117835;27;20353;-68
2022/01/10 09:53:41;;;;;;;16.42;8.73;;;6.10;99.90;;;;;;5115777;27;20341;-69
2022/01/10 09:56:06;;;;;;;21.80;9.52;;;6.20;99.90;;;;;;5129995;27;20031;-70
2022/01/10 09:58:32;;;;;;;16.20;9.20;;;6.30;99.90;;;;;;5120799;27;20050;-66
2022/01/10 10:01:00;;;;;;;14.00;8.65;;;6.40;99.90;;;;;;5114264;28;20476;-68
2022/01/10 10:03:25;;;;;;;16.38;9.23;;;6.60;99.90;;;;;;5121664;27;20085;-66
2022/01/10 10:05:52;;;;;;;15.95;10.75;;;6.80;99.90;;;;;;5114302;28;20402;-67
2022/01/10 10:08:23;;;;;;;22.20;8.90;;;6.90;99.90;;;;;;5113600;28;20032;-68
2022/01/10 10:10:50;;;;;;;17.83;9.32;;;7.10;99.90;;;;;;5113746;27;20051;-67
2022/01/10 10:13:16;;;;;;;18.08;9.00;;;7.10;99.90;;;;;;5127182;27;20023;-68
2022/01/10 10:15:45;;;;;;;16.52;8.98;;;7.20;99.90;;;;;;5127030;27;20016;-68
2022/01/10 10:18:16;;;;;;;18.17;8.35;;;7.10;99.90;;;;;;5118657;27;20114;-68
2022/01/10 10:21:14;;;;;;;16.17;8.55;;;7.20;99.90;;;;;;5125579;27;20476;-68
2022/01/10 10:23:41;;;;;;;15.45;8.68;;;7.10;99.90;;;;;;5134493;27;20084;-67
2022/01/10 10:26:07;;;;;;;17.35;8.45;;;6.70;99.90;;;;;;5133702;27;20023;-73
2022/01/10 10:28:37;;;;;;;15.65;8.43;;;6.70;99.90;;;;;;5134543;27;20384;-68
2022/01/10 10:31:03;;;;;;;14.20;8.85;;;6.80;99.90;;;;;;5134564;27;20027;-66
2022/01/10 10:33:29;;;;;;;25.45;9.77;;;6.90;99.90;;;;;;5126133;27;20388;-67
2022/01/10 10:36:07;;;;;;;18.65;9.25;;;6.90;99.90;;;;;;5113713;28;20133;-69
2022/01/10 10:38:33;;;;;;;22.10;9.05;;;6.80;99.90;;;;;;5130075;27;20023;-68
2022/01/10 10:41:02;;;;;;;22.58;9.45;;;6.90;99.90;;;;;;5128164;27;20151;-68
2022/01/10 10:43:36;;;;;;;15.88;9.70;;;6.90;99.90;;;;;;5111727;28;20404;-67
2022/01/10 10:46:08;;;;;;;19.67;8.60;;;6.90;99.90;;;;;;5116827;27;20031;-68
2022/01/10 10:48:35;;;;;;;15.98;9.13;;;6.90;99.90;;;;;;5133154;27;20422;-68
2022/01/10 10:51:01;;;;;;;15.18;8.45;;;7.10;99.90;;;;;;5120423;27;20031;-69
2022/01/10 10:53:29;;;;;;;31.38;10.40;;;7.00;99.90;;;;;;5126972;27;20039;-68
2022/01/10 10:56:01;;;;;;;20.35;9.05;;;7.10;99.90;;;;;;5123181;27;20027;-66
2022/01/10 10:58:27;;;;;;;20.40;9.32;;;7.40;99.90;;;;;;5116381;27;20053;-67
2022/01/10 11:00:54;;;;;;;17.05;8.93;;;7.40;99.90;;;;;;5129072;27;20379;-68
2022/01/10 11:03:21;;;;;;;18.17;8.35;;;7.50;99.90;;;;;;5121576;27;20369;-67
2022/01/10 11:05:48;;;;;;;20.80;8.30;;;7.60;99.90;;;;;;5133561;27;20031;-68
2022/01/10 11:08:14;;;;;;;17.00;9.27;;;7.70;99.90;;;;;;5126891;27;20476;-69
2022/01/10 11:10:41;;;;;;;16.67;7.80;;;7.60;99.90;;;;;;5132344;27;20027;-66
2022/01/10 11:13:08;;;;;;;15.23;8.00;;;7.90;99.90;;;;;;5122972;27;20031;-67
2022/01/10 11:15:38;;;;;;;20.67;8.70;;;8.10;99.90;;;;;;5113939;27;20035;-67
2022/01/10 11:18:06;;;;;;;18.02;8.18;;;8.30;99.90;;;;;;5115836;27;20028;-71
2022/01/10 11:20:46;;;;;;;20.30;9.30;;;8.50;99.90;;;;;;5114030;27;20033;-68
2022/01/10 11:23:13;;;;;;;21.02;8.38;;;8.60;99.90;;;;;;5128129;27;20549;-68
2022/01/10 11:25:40;;;;;;;20.50;8.82;;;8.60;99.90;;;;;;5111899;28;20024;-69
2022/01/10 11:28:09;;;;;;;17.20;7.53;;;9.20;99.90;;;;;;5113813;27;20036;-70
2022/01/10 11:30:44;;;;;;;15.43;7.72;;;10.20;99.90;;;;;;5113186;27;20036;-68
2022/01/10 11:33:15;;;;;;;16.13;7.40;;;;;;;;;;5113716;27;20031;-67
2022/01/10 11:35:51;;;;;;;16.83;6.78;;;12.40;99.90;;;;;;5114938;28;20550;-64
2022/01/10 11:38:31;;;;;;;11.02;6.18;;;13.50;99.90;;;;;;5115828;27;20040;-63
2022/01/10 11:41:04;;;;;;;14.73;6.18;;;;;;;;;;5122080;28;20035;-64
2022/01/10 11:43:33;;;;;;;15.23;6.75;;;15.20;98.10;;;;;;5113860;28;20223;-65
2022/01/10 11:46:08;;;;;;;16.00;6.68;;;15.70;96.60;;;;;;5119668;28;20035;-64
2022/01/10 11:48:47;;;;;;;14.15;5.90;;;16.60;97.00;;;;;;5116812;28;20050;-63
2022/01/10 11:51:39;;;;;;;15.48;6.47;;;17.30;94.90;;;;;;5109497;28;20032;-66
2022/01/10 11:54:08;;;;;;;;;;;18.30;92.80;;;;;;5116671;28;20499;-65
2022/01/10 11:56:36;;;;;;;15.68;6.03;;;18.00;91.70;;;;;;5111765;28;20044;-64
2022/01/10 11:59:25;;;;;;;13.77;6.22;;;18.00;93.80;;;;;;5108931;28;20027;-64
2022/01/10 12:01:59;;;;;;;14.55;7.00;;;18.00;88.40;;;;;;5110298;28;20039;-65
2022/01/10 12:04:27;;;;;;;13.30;5.55;;;18.60;88.90;;;;;;5108614;28;20028;-64
2022/01/10 12:06:54;;;;;;;12.40;5.38;;;18.90;88.60;;;;;;5115565;28;20130;-65
2022/01/10 12:09:21;;;;;;;18.73;5.68;;;18.50;81.30;;;;;;5108501;28;20042;-64
2022/01/10 12:11:48;;;;;;;10.25;5.65;;;18.70;86.40;;;;;;5110196;28;20176;-70
2022/01/10 12:14:14;;;;;;;15.05;6.45;;;19.10;77.10;;;;;;5109640;28;20032;-72
2022/01/10 12:16:40;;;;;;;11.30;5.75;;;18.70;73.40;;;;;;5110019;28;20107;-68
2022/01/10 12:19:07;;;;;;;10.25;5.72;;;17.30;74.70;;;;;;5109707;28;20102;-68
2022/01/10 12:21:33;;;;;;;10.98;4.88;;;18.20;76.10;;;;;;5109447;28;20465;-69
2022/01/10 12:24:00;;;;;;;10.57;5.45;;;17.80;72.50;;;;;;5108406;28;20441;-69
2022/01/10 12:26:27;;;;;;;19.83;6.20;;;18.10;72.80;;;;;;5109750;28;20104;-67
2022/01/10 12:28:58;;;;;;;10.90;5.07;;;18.40;72.80;;;;;;5114123;28;20108;-68
2022/01/10 12:31:27;;;;;;;11.85;5.43;;;18.80;70.80;;;;;;5122875;27;20062;-68
2022/01/10 12:33:54;;;;;;;14.85;5.85;;;18.90;70.00;;;;;;5134755;27;20557;-68
2022/01/10 12:36:21;;;;;;;12.40;4.45;;;18.70;70.20;;;;;;5134049;27;20027;-69
2022/01/10 12:39:05;;;;;;;9.75;4.28;;;18.20;69.90;;;;;;5118096;27;20401;-69
2022/01/10 12:41:32;;;;;;;9.18;4.60;;;18.50;69.60;;;;;;5111826;28;20028;-69
2022/01/10 12:43:58;;;;;;;10.95;4.93;;;18.60;68.90;;;;;;5113997;28;20015;-68
2022/01/10 12:46:27;;;;;;;10.13;4.28;;;19.00;67.30;;;;;;5111535;28;20061;-69
2022/01/10 12:48:53;;;;;;;17.08;4.80;;;19.20;66.10;;;;;;5112154;28;20092;-68
2022/01/10 12:51:20;;;;;;;12.23;6.18;;;19.70;65.30;;;;;;5113259;28;20086;-68
2022/01/10 12:53:51;;;;;;;9.13;4.70;;;20.10;64.90;;;;;;5113416;28;20414;-68
2022/01/10 12:56:22;;;;;;;11.77;4.25;;;19.60;63.00;;;;;;5111708;28;20451;-73
2022/01/10 12:58:50;;;;;;;;;;;19.30;63.10;;;;;;5114615;28;20035;-69
2022/01/10 13:01:18;;;;;;;9.40;3.72;;;18.90;64.60;;;;;;5113508;28;19927;-68